sensor_id;sensor_type;location;lat;lon;timestamp;P1;durP1;ratioP1;P2;durP2;ratioP2
9860;SDS011;4969;52.304;4.968;2023-08-12T00:02:32;3.85;;;3.45;;
9860;SDS011;4969;52.304;4.968;2023-08-12T00:04:59;6.13;;;3.80;;
9860;SDS011;4969;52.304;4.968;2023-08-12T00:07:26;5.53;;;4.30;;
9860;SDS011;4969;52.304;4.968;2023-08-12T00:09:52;7.65;;;5.00;;
9860;SDS011;4969;52.304;4.968;2023-08-12T00:12:21;4.43;;;3.50;;
9860;SDS011;4969;52.304;4.968;2023-08-12T00:14:49;4.65;;;3.88;;
9860;SDS011;4969;52.304;4.968;2023-08-12T00:17:16;5.53;;;4.15;;
9860;SDS011;4969;52.304;4.968;2023-08-12T00:19:42;6.80;;;5.38;;
9860;SDS011;4969;52.304;4.968;2023-08-12T00:22:09;5.03;;;4.50;;
9860;SDS011;4969;52.304;4.968;2023-08-12T00:24:35;5.68;;;4.45;;
9860;SDS011;4969;52.304;4.968;2023-08-12T00:27:02;5.65;;;4.60;;
9860;SDS011;4969;52.304;4.968;2023-08-12T00:29:29;5.55;;;4.75;;
9860;SDS011;4969;52.304;4.968;2023-08-12T00:31:57;4.75;;;3.78;;
9860;SDS011;4969;52.304;4.968;2023-08-12T00:34:23;5.97;;;4.95;;
9860;SDS011;4969;52.304;4.968;2023-08-12T00:36:50;5.72;;;4.70;;
9860;SDS011;4969;52.304;4.968;2023-08-12T00:39:16;5.07;;;4.68;;
9860;SDS011;4969;52.304;4.968;2023-08-12T00:41:43;4.97;;;4.38;;
9860;SDS011;4969;52.304;4.968;2023-08-12T00:44:10;6.03;;;4.93;;
9860;SDS011;4969;52.304;4.968;2023-08-12T00:46:36;7.40;;;5.30;;
9860;SDS011;4969;52.304;4.968;2023-08-12T00:49:05;5.40;;;4.85;;
9860;SDS011;4969;52.304;4.968;2023-08-12T00:51:32;4.60;;;4.07;;
9860;SDS011;4969;52.304;4.968;2023-08-12T00:53:59;7.43;;;6.22;;
9860;SDS011;4969;52.304;4.968;2023-08-12T00:56:28;5.80;;;5.00;;
9860;SDS011;4969;52.304;4.968;2023-08-12T00:58:57;7.57;;;5.00;;
9860;SDS011;4969;52.304;4.968;2023-08-12T01:01:24;6.13;;;4.45;;
9860;SDS011;4969;52.304;4.968;2023-08-12T01:03:50;6.32;;;5.65;;
9860;SDS011;4969;52.304;4.968;2023-08-12T01:06:19;5.50;;;5.00;;
9860;SDS011;4969;52.304;4.968;2023-08-12T01:08:46;6.05;;;5.50;;
9860;SDS011;4969;52.304;4.968;2023-08-12T01:11:14;7.57;;;5.47;;
9860;SDS011;4969;52.304;4.968;2023-08-12T01:13:46;6.97;;;5.25;;
9860;SDS011;4969;52.304;4.968;2023-08-12T01:16:21;6.40;;;5.72;;
9860;SDS011;4969;52.304;4.968;2023-08-12T01:18:49;8.23;;;5.80;;
9860;SDS011;4969;52.304;4.968;2023-08-12T01:21:16;6.38;;;4.75;;
9860;SDS011;4969;52.304;4.968;2023-08-12T01:23:44;7.43;;;5.45;;
9860;SDS011;4969;52.304;4.968;2023-08-12T01:26:11;7.03;;;5.95;;
9860;SDS011;4969;52.304;4.968;2023-08-12T01:28:38;9.05;;;4.50;;
9860;SDS011;4969;52.304;4.968;2023-08-12T01:31:05;8.93;;;5.10;;
9860;SDS011;4969;52.304;4.968;2023-08-12T01:33:39;8.73;;;6.38;;
9860;SDS011;4969;52.304;4.968;2023-08-12T01:36:11;6.93;;;6.00;;
9860;SDS011;4969;52.304;4.968;2023-08-12T01:38:41;7.88;;;5.45;;
9860;SDS011;4969;52.304;4.968;2023-08-12T01:41:12;7.60;;;5.57;;
9860;SDS011;4969;52.304;4.968;2023-08-12T01:43:39;10.30;;;6.63;;
9860;SDS011;4969;52.304;4.968;2023-08-12T01:46:07;6.90;;;5.40;;
9860;SDS011;4969;52.304;4.968;2023-08-12T01:48:34;9.23;;;6.53;;
9860;SDS011;4969;52.304;4.968;2023-08-12T01:51:00;8.88;;;6.13;;
9860;SDS011;4969;52.304;4.968;2023-08-12T01:53:28;6.80;;;6.13;;
9860;SDS011;4969;52.304;4.968;2023-08-12T01:55:56;6.53;;;5.63;;
9860;SDS011;4969;52.304;4.968;2023-08-12T01:58:22;7.22;;;5.63;;
9860;SDS011;4969;52.304;4.968;2023-08-12T02:00:51;6.55;;;5.95;;
9860;SDS011;4969;52.304;4.968;2023-08-12T02:03:17;7.20;;;5.78;;
9860;SDS011;4969;52.304;4.968;2023-08-12T02:05:44;12.30;;;8.82;;
9860;SDS011;4969;52.304;4.968;2023-08-12T02:08:11;10.93;;;8.32;;
9860;SDS011;4969;52.304;4.968;2023-08-12T02:10:37;6.63;;;5.53;;
9860;SDS011;4969;52.304;4.968;2023-08-12T02:13:05;9.75;;;7.05;;
9860;SDS011;4969;52.304;4.968;2023-08-12T02:15:32;9.60;;;7.07;;
9860;SDS011;4969;52.304;4.968;2023-08-12T02:17:58;8.65;;;7.18;;
9860;SDS011;4969;52.304;4.968;2023-08-12T02:20:25;8.32;;;6.57;;
9860;SDS011;4969;52.304;4.968;2023-08-12T02:22:51;6.20;;;5.45;;
9860;SDS011;4969;52.304;4.968;2023-08-12T02:25:18;12.55;;;8.02;;
9860;SDS011;4969;52.304;4.968;2023-08-12T02:27:45;8.82;;;5.57;;
9860;SDS011;4969;52.304;4.968;2023-08-12T02:30:13;10.50;;;8.07;;
9860;SDS011;4969;52.304;4.968;2023-08-12T02:32:39;8.70;;;6.80;;
9860;SDS011;4969;52.304;4.968;2023-08-12T02:35:08;7.72;;;6.63;;
9860;SDS011;4969;52.304;4.968;2023-08-12T02:37:35;11.70;;;6.70;;
9860;SDS011;4969;52.304;4.968;2023-08-12T02:40:02;7.78;;;5.68;;
9860;SDS011;4969;52.304;4.968;2023-08-12T02:42:30;9.43;;;6.60;;
9860;SDS011;4969;52.304;4.968;2023-08-12T02:44:56;8.40;;;6.50;;
9860;SDS011;4969;52.304;4.968;2023-08-12T02:47:26;7.90;;;6.70;;
9860;SDS011;4969;52.304;4.968;2023-08-12T02:49:52;8.23;;;6.07;;
9860;SDS011;4969;52.304;4.968;2023-08-12T02:52:19;6.85;;;6.20;;
9860;SDS011;4969;52.304;4.968;2023-08-12T02:54:46;10.13;;;7.57;;
9860;SDS011;4969;52.304;4.968;2023-08-12T02:57:12;8.95;;;7.38;;
9860;SDS011;4969;52.304;4.968;2023-08-12T02:59:39;11.52;;;8.88;;
9860;SDS011;4969;52.304;4.968;2023-08-12T03:02:06;10.02;;;8.98;;
9860;SDS011;4969;52.304;4.968;2023-08-12T03:04:34;12.35;;;9.13;;
9860;SDS011;4969;52.304;4.968;2023-08-12T03:07:00;8.52;;;7.30;;
9860;SDS011;4969;52.304;4.968;2023-08-12T03:09:27;9.82;;;8.55;;
9860;SDS011;4969;52.304;4.968;2023-08-12T03:11:54;10.65;;;9.55;;
9860;SDS011;4969;52.304;4.968;2023-08-12T03:14:21;10.00;;;8.63;;
9860;SDS011;4969;52.304;4.968;2023-08-12T03:16:48;12.57;;;9.00;;
9860;SDS011;4969;52.304;4.968;2023-08-12T03:19:14;12.70;;;9.07;;
9860;SDS011;4969;52.304;4.968;2023-08-12T03:21:42;10.40;;;8.07;;
9860;SDS011;4969;52.304;4.968;2023-08-12T03:24:09;11.95;;;9.23;;
9860;SDS011;4969;52.304;4.968;2023-08-12T03:26:35;10.90;;;8.15;;
9860;SDS011;4969;52.304;4.968;2023-08-12T03:29:02;11.20;;;9.63;;
9860;SDS011;4969;52.304;4.968;2023-08-12T03:31:29;9.45;;;8.27;;
9860;SDS011;4969;52.304;4.968;2023-08-12T03:33:54;14.15;;;10.90;;
9860;SDS011;4969;52.304;4.968;2023-08-12T03:36:21;9.77;;;8.13;;
9860;SDS011;4969;52.304;4.968;2023-08-12T03:38:49;11.80;;;9.02;;
9860;SDS011;4969;52.304;4.968;2023-08-12T03:41:16;9.73;;;7.95;;
9860;SDS011;4969;52.304;4.968;2023-08-12T03:43:42;11.38;;;7.60;;
9860;SDS011;4969;52.304;4.968;2023-08-12T03:46:09;10.75;;;8.88;;
9860;SDS011;4969;52.304;4.968;2023-08-12T03:48:36;12.90;;;9.25;;
9860;SDS011;4969;52.304;4.968;2023-08-12T03:51:02;9.35;;;8.02;;
9860;SDS011;4969;52.304;4.968;2023-08-12T03:53:29;10.68;;;9.43;;
9860;SDS011;4969;52.304;4.968;2023-08-12T03:55:57;9.77;;;8.30;;
9860;SDS011;4969;52.304;4.968;2023-08-12T03:58:23;10.30;;;7.88;;
9860;SDS011;4969;52.304;4.968;2023-08-12T04:00:51;9.65;;;7.28;;
9860;SDS011;4969;52.304;4.968;2023-08-12T04:03:17;10.52;;;8.63;;
9860;SDS011;4969;52.304;4.968;2023-08-12T04:05:47;13.68;;;11.18;;
9860;SDS011;4969;52.304;4.968;2023-08-12T04:08:15;11.95;;;9.88;;
9860;SDS011;4969;52.304;4.968;2023-08-12T04:10:43;9.52;;;8.57;;
9860;SDS011;4969;52.304;4.968;2023-08-12T04:13:12;15.10;;;10.68;;
9860;SDS011;4969;52.304;4.968;2023-08-12T04:15:39;9.52;;;8.63;;
9860;SDS011;4969;52.304;4.968;2023-08-12T04:18:05;8.00;;;6.93;;
9860;SDS011;4969;52.304;4.968;2023-08-12T04:20:32;8.77;;;7.03;;
9860;SDS011;4969;52.304;4.968;2023-08-12T04:22:59;9.20;;;8.20;;
9860;SDS011;4969;52.304;4.968;2023-08-12T04:25:25;11.93;;;9.27;;
9860;SDS011;4969;52.304;4.968;2023-08-12T04:27:52;7.70;;;6.45;;
9860;SDS011;4969;52.304;4.968;2023-08-12T04:30:20;8.02;;;6.88;;
9860;SDS011;4969;52.304;4.968;2023-08-12T04:32:47;9.68;;;8.73;;
9860;SDS011;4969;52.304;4.968;2023-08-12T04:35:13;9.60;;;8.60;;
9860;SDS011;4969;52.304;4.968;2023-08-12T04:37:40;8.48;;;7.63;;
9860;SDS011;4969;52.304;4.968;2023-08-12T04:40:07;8.82;;;7.85;;
9860;SDS011;4969;52.304;4.968;2023-08-12T04:42:34;15.45;;;9.55;;
9860;SDS011;4969;52.304;4.968;2023-08-12T04:45:01;14.23;;;9.98;;
9860;SDS011;4969;52.304;4.968;2023-08-12T04:47:30;11.73;;;8.60;;
9860;SDS011;4969;52.304;4.968;2023-08-12T04:49:57;9.43;;;8.52;;
9860;SDS011;4969;52.304;4.968;2023-08-12T04:52:23;11.30;;;8.77;;
9860;SDS011;4969;52.304;4.968;2023-08-12T04:54:52;12.65;;;10.68;;
9860;SDS011;4969;52.304;4.968;2023-08-12T04:57:19;8.98;;;8.02;;
9860;SDS011;4969;52.304;4.968;2023-08-12T04:59:45;8.18;;;7.38;;
9860;SDS011;4969;52.304;4.968;2023-08-12T05:02:12;8.60;;;7.47;;
9860;SDS011;4969;52.304;4.968;2023-08-12T05:04:40;9.48;;;7.72;;
9860;SDS011;4969;52.304;4.968;2023-08-12T05:07:06;9.38;;;8.15;;
9860;SDS011;4969;52.304;4.968;2023-08-12T05:09:33;10.07;;;8.98;;
9860;SDS011;4969;52.304;4.968;2023-08-12T05:12:00;8.45;;;7.22;;
9860;SDS011;4969;52.304;4.968;2023-08-12T05:14:26;9.98;;;8.95;;
9860;SDS011;4969;52.304;4.968;2023-08-12T05:16:53;9.23;;;7.78;;
9860;SDS011;4969;52.304;4.968;2023-08-12T05:19:19;10.23;;;9.18;;
9860;SDS011;4969;52.304;4.968;2023-08-12T05:21:48;11.88;;;9.80;;
9860;SDS011;4969;52.304;4.968;2023-08-12T05:24:14;8.85;;;7.93;;
9860;SDS011;4969;52.304;4.968;2023-08-12T05:26:41;8.90;;;7.18;;
9860;SDS011;4969;52.304;4.968;2023-08-12T05:29:07;10.30;;;8.63;;
9860;SDS011;4969;52.304;4.968;2023-08-12T05:31:34;11.25;;;10.05;;
9860;SDS011;4969;52.304;4.968;2023-08-12T05:34:01;10.75;;;7.50;;
9860;SDS011;4969;52.304;4.968;2023-08-12T05:36:27;9.10;;;8.30;;
9860;SDS011;4969;52.304;4.968;2023-08-12T05:38:56;11.88;;;9.00;;
9860;SDS011;4969;52.304;4.968;2023-08-12T05:41:22;9.32;;;8.23;;
9860;SDS011;4969;52.304;4.968;2023-08-12T05:43:49;11.52;;;9.85;;
9860;SDS011;4969;52.304;4.968;2023-08-12T05:46:15;12.20;;;9.32;;
9860;SDS011;4969;52.304;4.968;2023-08-12T05:48:42;10.23;;;8.80;;
9860;SDS011;4969;52.304;4.968;2023-08-12T05:51:09;13.27;;;9.70;;
9860;SDS011;4969;52.304;4.968;2023-08-12T05:53:37;7.75;;;6.97;;
9860;SDS011;4969;52.304;4.968;2023-08-12T05:56:05;10.55;;;8.15;;
9860;SDS011;4969;52.304;4.968;2023-08-12T05:58:31;8.45;;;7.63;;
9860;SDS011;4969;52.304;4.968;2023-08-12T06:00:58;11.57;;;10.18;;
9860;SDS011;4969;52.304;4.968;2023-08-12T06:03:25;14.23;;;10.63;;
9860;SDS011;4969;52.304;4.968;2023-08-12T06:05:51;10.60;;;9.18;;
9860;SDS011;4969;52.304;4.968;2023-08-12T06:08:18;10.10;;;9.05;;
9860;SDS011;4969;52.304;4.968;2023-08-12T06:10:44;12.15;;;10.77;;
9860;SDS011;4969;52.304;4.968;2023-08-12T06:13:12;13.23;;;10.48;;
9860;SDS011;4969;52.304;4.968;2023-08-12T06:15:39;12.90;;;9.18;;
9860;SDS011;4969;52.304;4.968;2023-08-12T06:18:06;12.43;;;8.90;;
9860;SDS011;4969;52.304;4.968;2023-08-12T06:20:32;9.88;;;8.85;;
9860;SDS011;4969;52.304;4.968;2023-08-12T06:22:59;12.30;;;9.98;;
9860;SDS011;4969;52.304;4.968;2023-08-12T06:25:25;11.43;;;10.27;;
9860;SDS011;4969;52.304;4.968;2023-08-12T06:27:52;10.85;;;9.63;;
9860;SDS011;4969;52.304;4.968;2023-08-12T06:30:20;11.43;;;8.95;;
9860;SDS011;4969;52.304;4.968;2023-08-12T06:32:46;10.27;;;9.27;;
9860;SDS011;4969;52.304;4.968;2023-08-12T06:35:13;8.68;;;7.88;;
9860;SDS011;4969;52.304;4.968;2023-08-12T06:37:40;9.57;;;7.85;;
9860;SDS011;4969;52.304;4.968;2023-08-12T06:40:07;13.07;;;9.93;;
9860;SDS011;4969;52.304;4.968;2023-08-12T06:42:34;8.20;;;7.43;;
9860;SDS011;4969;52.304;4.968;2023-08-12T06:45:00;6.65;;;5.95;;
9860;SDS011;4969;52.304;4.968;2023-08-12T06:47:30;10.00;;;8.00;;
9860;SDS011;4969;52.304;4.968;2023-08-12T06:49:57;8.68;;;7.88;;
9860;SDS011;4969;52.304;4.968;2023-08-12T06:52:23;5.85;;;5.45;;
9860;SDS011;4969;52.304;4.968;2023-08-12T06:54:50;7.28;;;5.78;;
9860;SDS011;4969;52.304;4.968;2023-08-12T06:57:16;6.35;;;5.78;;
9860;SDS011;4969;52.304;4.968;2023-08-12T06:59:43;5.80;;;5.40;;
9860;SDS011;4969;52.304;4.968;2023-08-12T07:02:10;6.22;;;5.72;;
9860;SDS011;4969;52.304;4.968;2023-08-12T07:04:38;6.00;;;5.60;;
9860;SDS011;4969;52.304;4.968;2023-08-12T07:07:04;5.82;;;5.30;;
9860;SDS011;4969;52.304;4.968;2023-08-12T07:09:31;6.05;;;5.47;;
9860;SDS011;4969;52.304;4.968;2023-08-12T07:11:57;5.05;;;4.68;;
9860;SDS011;4969;52.304;4.968;2023-08-12T07:14:25;4.80;;;4.40;;
9860;SDS011;4969;52.304;4.968;2023-08-12T07:16:53;4.57;;;4.18;;
9860;SDS011;4969;52.304;4.968;2023-08-12T07:19:19;4.38;;;4.00;;
9860;SDS011;4969;52.304;4.968;2023-08-12T07:21:48;6.82;;;3.65;;
9860;SDS011;4969;52.304;4.968;2023-08-12T07:24:14;4.43;;;3.42;;
9860;SDS011;4969;52.304;4.968;2023-08-12T07:26:41;3.50;;;3.30;;
9860;SDS011;4969;52.304;4.968;2023-08-12T07:29:08;3.25;;;3.05;;
9860;SDS011;4969;52.304;4.968;2023-08-12T07:31:34;3.35;;;2.95;;
9860;SDS011;4969;52.304;4.968;2023-08-12T07:34:01;3.45;;;3.20;;
9860;SDS011;4969;52.304;4.968;2023-08-12T07:36:28;3.28;;;3.08;;
9860;SDS011;4969;52.304;4.968;2023-08-12T07:38:55;2.97;;;2.78;;
9860;SDS011;4969;52.304;4.968;2023-08-12T07:41:22;3.30;;;3.00;;
9860;SDS011;4969;52.304;4.968;2023-08-12T07:43:52;3.50;;;3.20;;
9860;SDS011;4969;52.304;4.968;2023-08-12T07:46:19;3.22;;;2.90;;
9860;SDS011;4969;52.304;4.968;2023-08-12T07:48:45;3.08;;;2.72;;
9860;SDS011;4969;52.304;4.968;2023-08-12T07:51:12;3.17;;;2.95;;
9860;SDS011;4969;52.304;4.968;2023-08-12T07:53:39;3.08;;;2.78;;
9860;SDS011;4969;52.304;4.968;2023-08-12T07:56:06;3.08;;;2.88;;
9860;SDS011;4969;52.304;4.968;2023-08-12T07:58:33;3.13;;;2.92;;
9860;SDS011;4969;52.304;4.968;2023-08-12T08:01:00;2.28;;;2.08;;
9860;SDS011;4969;52.304;4.968;2023-08-12T08:03:26;2.60;;;2.40;;
9860;SDS011;4969;52.304;4.968;2023-08-12T08:05:54;2.70;;;2.50;;
9860;SDS011;4969;52.304;4.968;2023-08-12T08:08:21;3.33;;;2.20;;
9860;SDS011;4969;52.304;4.968;2023-08-12T08:10:48;4.60;;;2.30;;
9860;SDS011;4969;52.304;4.968;2023-08-12T08:13:16;4.07;;;2.08;;
9860;SDS011;4969;52.304;4.968;2023-08-12T08:15:42;2.22;;;1.98;;
9860;SDS011;4969;52.304;4.968;2023-08-12T08:18:09;4.18;;;2.28;;
9860;SDS011;4969;52.304;4.968;2023-08-12T08:20:36;3.63;;;1.90;;
9860;SDS011;4969;52.304;4.968;2023-08-12T08:23:02;2.38;;;2.05;;
9860;SDS011;4969;52.304;4.968;2023-08-12T08:25:29;3.35;;;2.10;;
9860;SDS011;4969;52.304;4.968;2023-08-12T08:27:57;2.10;;;1.90;;
9860;SDS011;4969;52.304;4.968;2023-08-12T08:30:25;5.30;;;1.98;;
9860;SDS011;4969;52.304;4.968;2023-08-12T08:32:51;4.22;;;1.83;;
9860;SDS011;4969;52.304;4.968;2023-08-12T08:35:19;4.45;;;2.25;;
9860;SDS011;4969;52.304;4.968;2023-08-12T08:37:45;4.03;;;1.80;;
9860;SDS011;4969;52.304;4.968;2023-08-12T08:40:12;3.83;;;1.95;;
9860;SDS011;4969;52.304;4.968;2023-08-12T08:42:39;4.47;;;2.20;;
9860;SDS011;4969;52.304;4.968;2023-08-12T08:45:12;4.85;;;1.77;;
9860;SDS011;4969;52.304;4.968;2023-08-12T08:47:41;5.15;;;2.17;;
9860;SDS011;4969;52.304;4.968;2023-08-12T08:50:09;4.22;;;2.15;;
9860;SDS011;4969;52.304;4.968;2023-08-12T08:52:36;5.20;;;2.30;;
9860;SDS011;4969;52.304;4.968;2023-08-12T08:55:04;4.53;;;1.92;;
9860;SDS011;4969;52.304;4.968;2023-08-12T08:57:31;6.53;;;2.75;;
9860;SDS011;4969;52.304;4.968;2023-08-12T08:59:58;8.48;;;2.40;;
9860;SDS011;4969;52.304;4.968;2023-08-12T09:02:25;5.45;;;2.28;;
9860;SDS011;4969;52.304;4.968;2023-08-12T09:04:53;4.90;;;2.10;;
9860;SDS011;4969;52.304;4.968;2023-08-12T09:07:21;4.10;;;2.25;;
9860;SDS011;4969;52.304;4.968;2023-08-12T09:09:49;7.93;;;2.72;;
9860;SDS011;4969;52.304;4.968;2023-08-12T09:12:18;5.38;;;2.05;;
9860;SDS011;4969;52.304;4.968;2023-08-12T09:14:46;6.18;;;2.30;;
9860;SDS011;4969;52.304;4.968;2023-08-12T09:17:13;4.55;;;2.13;;
9860;SDS011;4969;52.304;4.968;2023-08-12T09:19:41;6.32;;;2.20;;
9860;SDS011;4969;52.304;4.968;2023-08-12T09:22:09;4.22;;;2.15;;
9860;SDS011;4969;52.304;4.968;2023-08-12T09:24:35;6.15;;;2.28;;
9860;SDS011;4969;52.304;4.968;2023-08-12T09:27:02;4.60;;;2.25;;
9860;SDS011;4969;52.304;4.968;2023-08-12T09:29:29;3.88;;;2.17;;
9860;SDS011;4969;52.304;4.968;2023-08-12T09:32:04;5.78;;;2.30;;
9860;SDS011;4969;52.304;4.968;2023-08-12T09:34:32;6.85;;;2.80;;
9860;SDS011;4969;52.304;4.968;2023-08-12T09:36:59;6.03;;;2.55;;
9860;SDS011;4969;52.304;4.968;2023-08-12T09:39:28;7.70;;;2.70;;
9860;SDS011;4969;52.304;4.968;2023-08-12T09:41:54;5.40;;;2.45;;
9860;SDS011;4969;52.304;4.968;2023-08-12T09:44:21;5.22;;;2.55;;
9860;SDS011;4969;52.304;4.968;2023-08-12T09:46:48;6.40;;;2.55;;
9860;SDS011;4969;52.304;4.968;2023-08-12T09:49:22;6.90;;;2.42;;
9860;SDS011;4969;52.304;4.968;2023-08-12T09:51:48;5.38;;;2.20;;
9860;SDS011;4969;52.304;4.968;2023-08-12T09:54:16;5.28;;;2.38;;
9860;SDS011;4969;52.304;4.968;2023-08-12T09:56:46;3.40;;;2.08;;
9860;SDS011;4969;52.304;4.968;2023-08-12T09:59:14;5.35;;;2.30;;
9860;SDS011;4969;52.304;4.968;2023-08-12T10:01:44;5.45;;;2.58;;
9860;SDS011;4969;52.304;4.968;2023-08-12T10:04:12;5.53;;;2.58;;
9860;SDS011;4969;52.304;4.968;2023-08-12T10:06:43;6.68;;;2.45;;
9860;SDS011;4969;52.304;4.968;2023-08-12T10:09:10;4.93;;;2.35;;
9860;SDS011;4969;52.304;4.968;2023-08-12T10:11:37;5.00;;;2.28;;
9860;SDS011;4969;52.304;4.968;2023-08-12T10:14:06;5.32;;;2.38;;
9860;SDS011;4969;52.304;4.968;2023-08-12T10:16:34;5.97;;;2.47;;
9860;SDS011;4969;52.304;4.968;2023-08-12T10:19:02;6.22;;;2.30;;
9860;SDS011;4969;52.304;4.968;2023-08-12T10:21:31;4.95;;;2.30;;
9860;SDS011;4969;52.304;4.968;2023-08-12T10:23:58;6.50;;;2.40;;
9860;SDS011;4969;52.304;4.968;2023-08-12T10:26:25;4.03;;;2.38;;
9860;SDS011;4969;52.304;4.968;2023-08-12T10:28:52;5.55;;;2.30;;
9860;SDS011;4969;52.304;4.968;2023-08-12T10:31:22;5.30;;;2.30;;
9860;SDS011;4969;52.304;4.968;2023-08-12T10:33:49;7.47;;;2.30;;
9860;SDS011;4969;52.304;4.968;2023-08-12T10:36:15;6.32;;;2.40;;
9860;SDS011;4969;52.304;4.968;2023-08-12T10:38:44;4.30;;;2.00;;
9860;SDS011;4969;52.304;4.968;2023-08-12T10:41:15;7.00;;;2.50;;
9860;SDS011;4969;52.304;4.968;2023-08-12T10:43:49;9.63;;;3.25;;
9860;SDS011;4969;52.304;4.968;2023-08-12T10:46:22;8.00;;;2.33;;
9860;SDS011;4969;52.304;4.968;2023-08-12T10:48:55;7.68;;;2.80;;
9860;SDS011;4969;52.304;4.968;2023-08-12T10:54:15;5.20;;;2.30;;
9860;SDS011;4969;52.304;4.968;2023-08-12T10:59:52;7.05;;;2.70;;
9860;SDS011;4969;52.304;4.968;2023-08-12T11:02:25;7.75;;;2.85;;
9860;SDS011;4969;52.304;4.968;2023-08-12T11:04:54;8.50;;;2.47;;
9860;SDS011;4969;52.304;4.968;2023-08-12T11:07:22;10.75;;;2.92;;
9860;SDS011;4969;52.304;4.968;2023-08-12T11:09:56;5.07;;;2.53;;
9860;SDS011;4969;52.304;4.968;2023-08-12T11:12:29;8.82;;;2.60;;
9860;SDS011;4969;52.304;4.968;2023-08-12T11:14:57;7.03;;;2.97;;
9860;SDS011;4969;52.304;4.968;2023-08-12T11:17:36;8.10;;;2.67;;
9860;SDS011;4969;52.304;4.968;2023-08-12T11:20:05;6.63;;;2.58;;
9860;SDS011;4969;52.304;4.968;2023-08-12T11:22:35;10.65;;;3.00;;
9860;SDS011;4969;52.304;4.968;2023-08-12T11:25:03;7.85;;;3.05;;
9860;SDS011;4969;52.304;4.968;2023-08-12T11:27:40;6.88;;;2.60;;
9860;SDS011;4969;52.304;4.968;2023-08-12T11:30:08;6.15;;;2.47;;
9860;SDS011;4969;52.304;4.968;2023-08-12T11:32:37;6.07;;;2.50;;
9860;SDS011;4969;52.304;4.968;2023-08-12T11:35:05;8.25;;;2.83;;
9860;SDS011;4969;52.304;4.968;2023-08-12T11:37:34;6.95;;;2.80;;
9860;SDS011;4969;52.304;4.968;2023-08-12T11:40:01;7.45;;;2.67;;
9860;SDS011;4969;52.304;4.968;2023-08-12T11:42:29;9.50;;;3.10;;
9860;SDS011;4969;52.304;4.968;2023-08-12T11:44:56;5.95;;;2.67;;
9860;SDS011;4969;52.304;4.968;2023-08-12T11:47:22;9.18;;;2.78;;
9860;SDS011;4969;52.304;4.968;2023-08-12T11:49:51;6.68;;;2.53;;
9860;SDS011;4969;52.304;4.968;2023-08-12T11:52:18;7.88;;;3.10;;
9860;SDS011;4969;52.304;4.968;2023-08-12T11:54:45;6.60;;;2.80;;
9860;SDS011;4969;52.304;4.968;2023-08-12T11:57:11;7.38;;;2.38;;
9860;SDS011;4969;52.304;4.968;2023-08-12T11:59:38;10.20;;;2.95;;
9860;SDS011;4969;52.304;4.968;2023-08-12T12:02:05;6.53;;;2.92;;
9860;SDS011;4969;52.304;4.968;2023-08-12T12:04:31;7.25;;;2.50;;
9860;SDS011;4969;52.304;4.968;2023-08-12T12:06:59;7.10;;;2.60;;
9860;SDS011;4969;52.304;4.968;2023-08-12T12:09:31;9.73;;;3.20;;
9860;SDS011;4969;52.304;4.968;2023-08-12T12:11:58;10.63;;;2.95;;
9860;SDS011;4969;52.304;4.968;2023-08-12T12:14:25;5.20;;;2.58;;
9860;SDS011;4969;52.304;4.968;2023-08-12T12:16:52;7.47;;;2.83;;
9860;SDS011;4969;52.304;4.968;2023-08-12T12:19:19;8.25;;;3.10;;
9860;SDS011;4969;52.304;4.968;2023-08-12T12:21:47;8.02;;;3.08;;
9860;SDS011;4969;52.304;4.968;2023-08-12T12:24:15;9.48;;;3.00;;
9860;SDS011;4969;52.304;4.968;2023-08-12T12:26:43;7.05;;;2.45;;
9860;SDS011;4969;52.304;4.968;2023-08-12T12:29:10;12.52;;;3.85;;
9860;SDS011;4969;52.304;4.968;2023-08-12T12:31:38;9.73;;;2.75;;
9860;SDS011;4969;52.304;4.968;2023-08-12T12:34:05;6.93;;;2.95;;
9860;SDS011;4969;52.304;4.968;2023-08-12T12:36:32;8.27;;;3.17;;
9860;SDS011;4969;52.304;4.968;2023-08-12T12:39:01;7.40;;;2.92;;
9860;SDS011;4969;52.304;4.968;2023-08-12T12:41:29;7.63;;;2.60;;
9860;SDS011;4969;52.304;4.968;2023-08-12T12:43:57;9.85;;;2.78;;
9860;SDS011;4969;52.304;4.968;2023-08-12T12:46:25;8.73;;;3.03;;
9860;SDS011;4969;52.304;4.968;2023-08-12T12:48:51;7.63;;;2.80;;
9860;SDS011;4969;52.304;4.968;2023-08-12T12:51:18;9.57;;;3.38;;
9860;SDS011;4969;52.304;4.968;2023-08-12T12:53:45;6.80;;;2.42;;
9860;SDS011;4969;52.304;4.968;2023-08-12T12:56:11;8.45;;;2.65;;
9860;SDS011;4969;52.304;4.968;2023-08-12T12:58:40;7.80;;;2.70;;
9860;SDS011;4969;52.304;4.968;2023-08-12T13:01:06;6.70;;;2.65;;
9860;SDS011;4969;52.304;4.968;2023-08-12T13:03:33;7.47;;;2.95;;
9860;SDS011;4969;52.304;4.968;2023-08-12T13:05:59;7.22;;;2.70;;
9860;SDS011;4969;52.304;4.968;2023-08-12T13:08:27;6.22;;;2.53;;
9860;SDS011;4969;52.304;4.968;2023-08-12T13:10:54;6.85;;;2.63;;
9860;SDS011;4969;52.304;4.968;2023-08-12T13:13:21;6.50;;;2.60;;
9860;SDS011;4969;52.304;4.968;2023-08-12T13:15:49;8.30;;;3.10;;
9860;SDS011;4969;52.304;4.968;2023-08-12T13:18:17;8.63;;;3.13;;
9860;SDS011;4969;52.304;4.968;2023-08-12T13:20:44;8.50;;;2.92;;
9860;SDS011;4969;52.304;4.968;2023-08-12T13:23:11;9.75;;;2.97;;
9860;SDS011;4969;52.304;4.968;2023-08-12T13:25:38;9.70;;;3.28;;
9860;SDS011;4969;52.304;4.968;2023-08-12T13:28:05;8.55;;;2.55;;
9860;SDS011;4969;52.304;4.968;2023-08-12T13:30:32;6.13;;;2.50;;
9860;SDS011;4969;52.304;4.968;2023-08-12T13:33:00;6.63;;;2.50;;
9860;SDS011;4969;52.304;4.968;2023-08-12T13:35:27;7.28;;;2.65;;
9860;SDS011;4969;52.304;4.968;2023-08-12T13:37:53;7.40;;;2.80;;
9860;SDS011;4969;52.304;4.968;2023-08-12T13:40:20;5.22;;;2.40;;
9860;SDS011;4969;52.304;4.968;2023-08-12T13:42:47;8.32;;;2.72;;
9860;SDS011;4969;52.304;4.968;2023-08-12T13:45:15;7.32;;;2.60;;
9860;SDS011;4969;52.304;4.968;2023-08-12T13:47:41;8.90;;;3.15;;
9860;SDS011;4969;52.304;4.968;2023-08-12T13:50:09;6.97;;;2.55;;
9860;SDS011;4969;52.304;4.968;2023-08-12T13:52:36;6.32;;;2.70;;
9860;SDS011;4969;52.304;4.968;2023-08-12T13:55:03;8.07;;;2.90;;
9860;SDS011;4969;52.304;4.968;2023-08-12T13:57:30;9.52;;;3.50;;
9860;SDS011;4969;52.304;4.968;2023-08-12T13:59:57;10.00;;;2.85;;
9860;SDS011;4969;52.304;4.968;2023-08-12T14:02:24;6.65;;;2.42;;
9860;SDS011;4969;52.304;4.968;2023-08-12T14:04:50;5.47;;;2.83;;
9860;SDS011;4969;52.304;4.968;2023-08-12T14:07:18;6.30;;;2.67;;
9860;SDS011;4969;52.304;4.968;2023-08-12T14:09:46;7.38;;;2.80;;
9860;SDS011;4969;52.304;4.968;2023-08-12T14:12:13;5.68;;;2.63;;
9860;SDS011;4969;52.304;4.968;2023-08-12T14:14:39;7.60;;;2.70;;
9860;SDS011;4969;52.304;4.968;2023-08-12T14:17:06;8.23;;;2.90;;
9860;SDS011;4969;52.304;4.968;2023-08-12T14:19:32;8.75;;;2.70;;
9860;SDS011;4969;52.304;4.968;2023-08-12T14:21:59;6.40;;;2.80;;
9860;SDS011;4969;52.304;4.968;2023-08-12T14:24:27;7.32;;;2.47;;
9860;SDS011;4969;52.304;4.968;2023-08-12T14:26:54;8.35;;;3.10;;
9860;SDS011;4969;52.304;4.968;2023-08-12T14:29:20;6.63;;;2.83;;
9860;SDS011;4969;52.304;4.968;2023-08-12T14:31:47;7.40;;;2.58;;
9860;SDS011;4969;52.304;4.968;2023-08-12T14:34:13;11.60;;;2.95;;
9860;SDS011;4969;52.304;4.968;2023-08-12T14:36:40;13.45;;;3.08;;
9860;SDS011;4969;52.304;4.968;2023-08-12T14:39:06;7.90;;;2.95;;
9860;SDS011;4969;52.304;4.968;2023-08-12T14:41:35;5.63;;;2.90;;
9860;SDS011;4969;52.304;4.968;2023-08-12T14:44:01;7.43;;;3.00;;
9860;SDS011;4969;52.304;4.968;2023-08-12T14:46:28;8.98;;;3.10;;
9860;SDS011;4969;52.304;4.968;2023-08-12T14:48:54;10.00;;;2.60;;
9860;SDS011;4969;52.304;4.968;2023-08-12T14:51:21;8.75;;;3.22;;
9860;SDS011;4969;52.304;4.968;2023-08-12T14:53:48;7.05;;;2.92;;
9860;SDS011;4969;52.304;4.968;2023-08-12T14:56:15;8.35;;;3.13;;
9860;SDS011;4969;52.304;4.968;2023-08-12T14:58:43;8.45;;;3.22;;
9860;SDS011;4969;52.304;4.968;2023-08-12T15:01:10;11.30;;;4.05;;
9860;SDS011;4969;52.304;4.968;2023-08-12T15:03:38;12.77;;;3.45;;
9860;SDS011;4969;52.304;4.968;2023-08-12T15:06:04;10.05;;;3.70;;
9860;SDS011;4969;52.304;4.968;2023-08-12T15:08:31;11.00;;;3.75;;
9860;SDS011;4969;52.304;4.968;2023-08-12T15:10:58;12.18;;;4.45;;
9860;SDS011;4969;52.304;4.968;2023-08-12T15:13:25;16.20;;;4.85;;
9860;SDS011;4969;52.304;4.968;2023-08-12T15:15:53;9.68;;;3.80;;
9860;SDS011;4969;52.304;4.968;2023-08-12T15:18:19;15.32;;;5.65;;
9860;SDS011;4969;52.304;4.968;2023-08-12T15:20:46;13.27;;;5.00;;